Time,TemperatureF,DewpointF,PressureIn,WindDirection,WindDirectionDegrees,WindSpeedMPH,WindSpeedGustMPH,Humidity,HourlyPrecipIn,Conditions,Clouds,dailyrainin,SoftwareType,DateUTC
2013-02-07 00:01:00,40.0,36.0,30.15,WNW,301,0.0,0.0,87,0.00,,,0.01,,2013-02-07 08:01:00,
2013-02-07 00:11:00,40.0,36.0,30.15,WNW,301,0.0,0.0,87,0.00,,,0.01,,2013-02-07 08:11:00,
2013-02-07 00:21:00,40.0,37.0,30.14,WNW,301,0.0,1.0,88,0.00,,,0.01,,2013-02-07 08:21:00,
2013-02-07 00:31:00,40.0,37.0,30.14,WNW,301,0.0,2.0,88,0.00,,,0.01,,2013-02-07 08:31:00,
2013-02-07 00:41:00,40.0,37.0,30.14,WNW,301,0.0,2.0,88,0.00,,,0.01,,2013-02-07 08:41:00,
2013-02-07 00:52:00,41.0,37.0,30.14,WNW,301,0.0,0.0,87,0.00,,,0.01,,2013-02-07 08:52:00,
2013-02-07 01:01:00,42.0,38.0,30.14,WNW,301,0.0,1.0,86,0.00,,,0.01,,2013-02-07 09:01:00,
2013-02-07 01:11:00,42.0,38.0,30.14,WNW,301,0.0,1.0,86,0.00,,,0.01,,2013-02-07 09:11:00,
2013-02-07 01:21:00,42.0,38.0,30.13,WNW,301,0.0,0.0,86,0.00,,,0.01,,2013-02-07 09:21:00,
2013-02-07 01:31:00,42.0,38.0,30.14,WNW,301,0.0,0.0,86,0.00,,,0.01,,2013-02-07 09:31:00,
2013-02-07 01:41:00,42.0,38.0,30.14,WNW,301,0.0,0.0,86,0.00,,,0.01,,2013-02-07 09:41:00,
2013-02-07 01:52:00,42.0,38.0,30.14,WNW,301,0.0,0.0,86,0.00,,,0.01,,2013-02-07 09:52:00,
2013-02-07 02:01:00,43.0,39.0,30.14,WNW,301,0.0,0.0,87,0.00,,,0.01,,2013-02-07 10:01:00,
2013-02-07 02:11:00,43.0,39.0,30.14,WNW,301,0.0,0.0,87,0.00,,,0.01,,2013-02-07 10:11:00,
2013-02-07 02:22:00,43.0,39.0,30.14,WNW,301,0.0,1.0,87,0.00,,,0.01,,2013-02-07 10:22:00,
2013-02-07 02:31:00,43.0,40.0,30.13,WNW,301,0.0,0.0,88,0.00,,,0.01,,2013-02-07 10:31:00,
2013-02-07 02:41:00,43.0,40.0,30.13,WNW,301,0.0,0.0,88,0.00,,,0.01,,2013-02-07 10:41:00,
2013-02-07 02:52:00,43.0,40.0,30.13,WNW,301,0.0,0.0,88,0.00,,,0.01,,2013-02-07 10:52:00,
2013-02-07 03:01:00,43.0,40.0,30.12,WNW,301,1.0,1.0,90,0.00,,,0.01,,2013-02-07 11:01:00,
2013-02-07 03:11:00,43.0,40.0,30.12,WNW,301,1.0,1.0,90,0.00,,,0.01,,2013-02-07 11:11:00,
2013-02-07 03:22:00,44.0,42.0,30.12,South,169,1.0,3.0,92,0.00,,,0.00,,2013-02-07 11:22:00,
2013-02-07 03:32:00,44.0,42.0,30.11,SSE,148,2.0,4.0,94,0.00,,,0.00,,2013-02-07 11:32:00,
2013-02-07 03:43:00,44.0,42.0,30.11,SSE,148,2.0,4.0,94,0.00,,,0.00,,2013-02-07 11:43:00,
2013-02-07 03:52:00,44.0,43.0,30.11,SE,135,4.0,6.0,95,0.00,,,0.00,,2013-02-07 11:52:00,
2013-02-07 04:01:00,44.0,43.0,30.10,South,182,2.0,8.0,95,0.00,,,0.00,,2013-02-07 12:01:00,
2013-02-07 04:11:00,44.0,43.0,30.10,South,182,2.0,8.0,95,0.00,,,0.00,,2013-02-07 12:11:00,
2013-02-07 04:21:00,44.0,43.0,30.10,SSE,166,2.0,6.0,96,0.01,,,0.01,,2013-02-07 12:21:00,
2013-02-07 04:32:00,44.0,43.0,30.10,SSW,194,2.0,7.0,96,0.01,,,0.01,,2013-02-07 12:32:00,
2013-02-07 04:41:00,44.0,43.0,30.10,SSW,194,2.0,7.0,96,0.01,,,0.01,,2013-02-07 12:41:00,
2013-02-07 04:53:00,44.0,43.0,30.09,SSE,147,6.0,9.0,96,0.02,,,0.02,,2013-02-07 12:53:00,
2013-02-07 05:02:00,44.0,43.0,30.09,SE,142,3.0,11.0,96,0.03,,,0.03,,2013-02-07 13:02:00,
2013-02-07 05:11:00,44.0,43.0,30.09,SE,142,3.0,11.0,96,0.03,,,0.03,,2013-02-07 13:11:00,
2013-02-07 05:21:00,44.0,43.0,30.09,SSE,168,3.0,6.0,96,0.02,,,0.03,,2013-02-07 13:21:00,
2013-02-07 05:31:00,45.0,44.0,30.09,SSE,158,4.0,6.0,96,0.01,,,0.03,,2013-02-07 13:31:00,
2013-02-07 05:41:00,45.0,44.0,30.09,SSE,158,4.0,6.0,96,0.01,,,0.03,,2013-02-07 13:41:00,
2013-02-07 05:52:00,45.0,44.0,30.08,SSE,162,5.0,10.0,97,0.01,,,0.03,,2013-02-07 13:52:00,
2013-02-07 06:01:00,45.0,44.0,30.07,SE,129,5.0,9.0,97,0.00,,,0.03,,2013-02-07 14:01:00,
2013-02-07 06:11:00,45.0,44.0,30.07,SE,129,5.0,9.0,97,0.00,,,0.03,,2013-02-07 14:11:00,
2013-02-07 06:21:00,45.0,44.0,30.08,SSE,150,10.0,18.0,97,0.01,,,0.04,,2013-02-07 14:21:00,
2013-02-07 06:31:00,45.0,44.0,30.07,SSE,167,5.0,16.0,97,0.01,,,0.04,,2013-02-07 14:31:00,
2013-02-07 06:41:00,45.0,44.0,30.07,SSE,167,5.0,16.0,97,0.01,,,0.04,,2013-02-07 14:41:00,
2013-02-07 06:52:00,45.0,44.0,30.07,SSE,162,4.0,12.0,97,0.01,,,0.04,,2013-02-07 14:52:00,
2013-02-07 07:01:00,45.0,44.0,30.07,SSW,201,2.0,10.0,97,0.01,,,0.04,,2013-02-07 15:01:00,
2013-02-07 07:11:00,45.0,44.0,30.07,SSW,201,2.0,10.0,97,0.01,,,0.04,,2013-02-07 15:11:00,
2013-02-07 07:21:00,45.0,44.0,30.07,SSW,201,3.0,6.0,97,0.01,,,0.05,,2013-02-07 15:21:00,
2013-02-07 07:31:00,45.0,44.0,30.08,South,173,2.0,5.0,97,0.02,,,0.06,,2013-02-07 15:31:00,
2013-02-07 07:41:00,45.0,44.0,30.08,South,173,2.0,5.0,97,0.02,,,0.06,,2013-02-07 15:41:00,
2013-02-07 07:52:00,45.0,44.0,30.09,SSE,159,0.0,5.0,97,0.03,,,0.07,,2013-02-07 15:52:00,
2013-02-07 08:01:00,44.0,43.0,30.09,SW,234,1.0,3.0,97,0.05,,,0.09,,2013-02-07 16:01:00,
2013-02-07 08:11:00,44.0,43.0,30.09,SW,234,1.0,3.0,97,0.05,,,0.09,,2013-02-07 16:11:00,
2013-02-07 08:21:00,43.0,42.0,30.09,SSW,195,0.0,3.0,96,0.04,,,0.10,,2013-02-07 16:21:00,
2013-02-07 08:31:00,43.0,42.0,30.10,SSW,195,0.0,1.0,96,0.04,,,0.10,,2013-02-07 16:31:00,
2013-02-07 08:41:00,43.0,42.0,30.10,SSW,195,0.0,1.0,96,0.04,,,0.10,,2013-02-07 16:41:00,
2013-02-07 08:52:00,43.0,42.0,30.11,South,173,0.0,2.0,96,0.03,,,0.10,,2013-02-07 16:52:00,
2013-02-07 09:01:00,44.0,43.0,30.11,South,173,2.0,3.0,97,0.01,,,0.10,,2013-02-07 17:01:00,
2013-02-07 09:11:00,44.0,43.0,30.11,South,173,2.0,3.0,97,0.01,,,0.10,,2013-02-07 17:11:00,
2013-02-07 09:21:00,44.0,43.0,30.11,SW,232,1.0,3.0,96,0.00,,,0.10,,2013-02-07 17:21:00,
2013-02-07 09:31:00,45.0,44.0,30.11,WSW,257,2.0,5.0,96,0.00,,,0.10,,2013-02-07 17:31:00,
2013-02-07 09:41:00,45.0,44.0,30.11,WSW,257,2.0,5.0,96,0.00,,,0.10,,2013-02-07 17:41:00,
2013-02-07 09:52:00,46.0,45.0,30.11,SW,225,2.0,3.0,95,0.00,,,0.10,,2013-02-07 17:52:00,
2013-02-07 10:01:00,47.0,45.0,30.11,SW,225,2.0,6.0,91,0.00,,,0.10,,2013-02-07 18:01:00,
2013-02-07 10:11:00,47.0,45.0,30.11,SW,225,2.0,6.0,91,0.00,,,0.10,,2013-02-07 18:11:00,
2013-02-07 10:22:00,47.0,44.0,30.11,WSW,242,3.0,5.0,90,0.00,,,0.10,,2013-02-07 18:22:00,
2013-02-07 10:31:00,47.0,44.0,30.11,SSW,208,3.0,4.0,89,0.00,,,0.10,,2013-02-07 18:31:00,
2013-02-07 10:41:00,47.0,44.0,30.11,SSW,208,3.0,4.0,89,0.00,,,0.10,,2013-02-07 18:41:00,
2013-02-07 10:52:00,48.0,45.0,30.11,NNE,28,1.0,6.0,89,0.00,,,0.10,,2013-02-07 18:52:00,
2013-02-07 11:01:00,48.0,44.0,30.11,ESE,106,1.0,4.0,87,0.00,,,0.10,,2013-02-07 19:01:00,
2013-02-07 11:11:00,48.0,44.0,30.11,ESE,106,1.0,4.0,87,0.00,,,0.10,,2013-02-07 19:11:00,
2013-02-07 11:22:00,49.0,44.0,30.11,West,259,2.0,7.0,82,0.00,,,0.10,,2013-02-07 19:22:00,
2013-02-07 11:31:00,50.0,45.0,30.11,SW,236,2.0,6.0,82,0.00,,,0.10,,2013-02-07 19:31:00,
2013-02-07 11:41:00,50.0,45.0,30.11,SW,236,2.0,6.0,82,0.00,,,0.10,,2013-02-07 19:41:00,
2013-02-07 11:52:00,49.0,44.0,30.10,South,169,1.0,2.0,84,0.00,,,0.10,,2013-02-07 19:52:00,
2013-02-07 12:01:00,48.0,44.0,30.10,South,169,1.0,1.0,86,0.00,,,0.10,,2013-02-07 20:01:00,
2013-02-07 12:11:00,48.0,44.0,30.10,South,169,1.0,1.0,86,0.00,,,0.10,,2013-02-07 20:11:00,
2013-02-07 12:21:00,47.0,43.0,30.09,South,170,1.0,2.0,86,0.00,,,0.10,,2013-02-07 20:21:00,
2013-02-07 12:31:00,47.0,43.0,30.09,South,169,0.0,1.0,87,0.00,,,0.10,,2013-02-07 20:31:00,
2013-02-07 12:41:00,47.0,43.0,30.09,South,169,0.0,1.0,87,0.00,,,0.10,,2013-02-07 20:41:00,
2013-02-07 12:52:00,48.0,42.0,30.08,South,183,2.0,4.0,80,0.00,,,0.10,,2013-02-07 20:52:00,
2013-02-07 13:01:00,51.0,42.0,30.08,NNW,339,1.0,3.0,72,0.00,,,0.10,,2013-02-07 21:01:00,
2013-02-07 13:11:00,51.0,42.0,30.08,NNW,339,1.0,3.0,72,0.00,,,0.10,,2013-02-07 21:11:00,
2013-02-07 13:21:00,52.0,41.0,30.07,NW,317,1.0,4.0,66,0.00,,,0.10,,2013-02-07 21:21:00,
2013-02-07 13:31:00,52.0,41.0,30.06,North,9,1.0,4.0,65,0.00,,,0.10,,2013-02-07 21:31:00,
2013-02-07 13:41:00,52.0,41.0,30.06,North,9,1.0,4.0,65,0.00,,,0.10,,2013-02-07 21:41:00,
2013-02-07 13:52:00,51.0,40.0,30.06,East,88,1.0,2.0,67,0.00,,,0.10,,2013-02-07 21:52:00,
2013-02-07 14:01:00,50.0,41.0,30.06,ESE,114,2.0,4.0,71,0.00,,,0.10,,2013-02-07 22:01:00,
2013-02-07 14:11:00,50.0,41.0,30.06,ESE,114,2.0,4.0,71,0.00,,,0.10,,2013-02-07 22:11:00,
2013-02-07 14:21:00,50.0,40.0,30.05,SW,216,2.0,4.0,69,0.00,,,0.10,,2013-02-07 22:21:00,
2013-02-07 14:31:00,51.0,40.0,30.05,SSW,202,2.0,4.0,66,0.00,,,0.10,,2013-02-07 22:31:00,
2013-02-07 14:42:00,51.0,40.0,30.05,SSW,202,2.0,4.0,66,0.00,,,0.10,,2013-02-07 22:42:00,
2013-02-07 14:52:00,51.0,39.0,30.04,South,188,2.0,3.0,63,0.00,,,0.10,,2013-02-07 22:52:00,
2013-02-07 15:01:00,52.0,40.0,30.04,SW,223,2.0,6.0,63,0.00,,,0.10,,2013-02-07 23:01:00,
2013-02-07 15:11:00,52.0,40.0,30.04,SW,223,2.0,6.0,63,0.00,,,0.10,,2013-02-07 23:11:00,
2013-02-07 15:21:00,50.0,38.0,30.04,ENE,74,1.0,3.0,63,0.00,,,0.10,,2013-02-07 23:21:00,
2013-02-07 15:31:00,51.0,36.0,30.04,ESE,121,2.0,7.0,57,0.00,,,0.10,,2013-02-07 23:31:00,
2013-02-07 15:41:00,51.0,36.0,30.04,ESE,121,2.0,7.0,57,0.00,,,0.10,,2013-02-07 23:41:00,
2013-02-07 15:52:00,51.0,35.0,30.03,SSW,205,1.0,7.0,55,0.00,,,0.10,,2013-02-07 23:52:00,
2013-02-07 16:01:00,49.0,35.0,30.03,SSE,148,1.0,4.0,59,0.00,,,0.10,,2013-02-08 00:01:00,
2013-02-07 16:11:00,49.0,35.0,30.03,SSE,148,1.0,4.0,59,0.00,,,0.10,,2013-02-08 00:11:00,
2013-02-07 16:21:00,49.0,37.0,30.03,SSE,153,2.0,5.0,62,0.00,,,0.10,,2013-02-08 00:21:00,
2013-02-07 16:31:00,49.0,36.0,30.03,SSW,201,4.0,7.0,61,0.00,,,0.10,,2013-02-08 00:31:00,
2013-02-07 16:41:00,49.0,36.0,30.03,SSW,201,4.0,7.0,61,0.00,,,0.10,,2013-02-08 00:41:00,
2013-02-07 16:52:00,49.0,36.0,30.03,South,178,3.0,7.0,61,0.00,,,0.10,,2013-02-08 00:52:00,
2013-02-07 17:01:00,48.0,36.0,30.03,SSE,166,3.0,9.0,64,0.00,,,0.10,,2013-02-08 01:01:00,
2013-02-07 17:11:00,48.0,36.0,30.03,SSE,166,3.0,9.0,64,0.00,,,0.10,,2013-02-08 01:11:00,
2013-02-07 17:21:00,46.0,35.0,30.03,SW,218,2.0,5.0,66,0.00,,,0.10,,2013-02-08 01:21:00,
2013-02-07 17:31:00,46.0,36.0,30.02,ENE,59,2.0,5.0,69,0.00,,,0.10,,2013-02-08 01:31:00,
2013-02-07 17:41:00,46.0,36.0,30.02,ENE,59,2.0,5.0,69,0.00,,,0.10,,2013-02-08 01:41:00,
2013-02-07 17:52:00,45.0,37.0,30.02,SSW,213,2.0,6.0,74,0.00,,,0.10,,2013-02-08 01:52:00,
2013-02-07 18:01:00,44.0,37.0,30.03,WSW,252,2.0,6.0,76,0.00,,,0.10,,2013-02-08 02:01:00,
2013-02-07 18:11:00,44.0,37.0,30.03,WSW,252,2.0,6.0,76,0.00,,,0.10,,2013-02-08 02:11:00,
2013-02-07 18:21:00,44.0,37.0,30.03,NE,36,1.0,4.0,77,0.00,,,0.10,,2013-02-08 02:21:00,
2013-02-07 18:31:00,43.0,37.0,30.03,South,172,1.0,4.0,79,0.00,,,0.10,,2013-02-08 02:31:00,
2013-02-07 18:42:00,43.0,37.0,30.03,South,172,1.0,4.0,79,0.00,,,0.10,,2013-02-08 02:42:00,
2013-02-07 18:52:00,43.0,38.0,30.03,SSE,165,0.0,7.0,81,0.00,,,0.10,,2013-02-08 02:52:00,
2013-02-07 19:01:00,42.0,37.0,30.02,South,171,0.0,2.0,82,0.00,,,0.10,,2013-02-08 03:01:00,
2013-02-07 19:11:00,42.0,37.0,30.02,South,171,0.0,2.0,82,0.00,,,0.10,,2013-02-08 03:11:00,
2013-02-07 19:22:00,41.0,37.0,30.02,South,171,0.0,1.0,84,0.00,,,0.10,,2013-02-08 03:22:00,
2013-02-07 19:31:00,41.0,37.0,30.02,South,171,1.0,2.0,85,0.00,,,0.10,,2013-02-08 03:31:00,
2013-02-07 19:41:00,41.0,37.0,30.02,South,171,1.0,2.0,85,0.00,,,0.10,,2013-02-08 03:41:00,
2013-02-07 19:52:00,40.0,36.0,30.02,South,171,0.0,1.0,87,0.00,,,0.10,,2013-02-08 03:52:00,
2013-02-07 20:01:00,40.0,36.0,30.02,South,171,0.0,1.0,87,0.00,,,0.10,,2013-02-08 04:01:00,
2013-02-07 20:11:00,40.0,36.0,30.02,South,171,0.0,1.0,87,0.00,,,0.10,,2013-02-08 04:11:00,
2013-02-07 20:21:00,40.0,37.0,30.02,South,171,0.0,1.0,89,0.00,,,0.10,,2013-02-08 04:21:00,
2013-02-07 20:31:00,40.0,37.0,30.01,NE,46,1.0,3.0,89,0.00,,,0.10,,2013-02-08 04:31:00,
2013-02-07 20:41:00,40.0,37.0,30.01,NE,46,1.0,3.0,89,0.00,,,0.10,,2013-02-08 04:41:00,
2013-02-07 20:52:00,40.0,37.0,30.01,ESE,104,1.0,2.0,89,0.00,,,0.10,,2013-02-08 04:52:00,
2013-02-07 21:01:00,39.0,36.0,30.01,ESE,104,0.0,1.0,89,0.00,,,0.10,,2013-02-08 05:01:00,
2013-02-07 21:11:00,39.0,36.0,30.01,ESE,104,0.0,1.0,89,0.00,,,0.10,,2013-02-08 05:11:00,
2013-02-07 21:22:00,39.0,36.0,30.01,ESE,104,0.0,1.0,90,0.00,,,0.10,,2013-02-08 05:22:00,
2013-02-07 21:31:00,39.0,37.0,30.01,ESE,104,0.0,1.0,91,0.00,,,0.10,,2013-02-08 05:31:00,
2013-02-07 21:41:00,39.0,37.0,30.01,ESE,104,0.0,1.0,91,0.00,,,0.10,,2013-02-08 05:41:00,
2013-02-07 21:52:00,38.0,36.0,30.00,ESE,104,0.0,0.0,91,0.00,,,0.10,,2013-02-08 05:52:00,
2013-02-07 22:01:00,38.0,36.0,30.00,ESE,104,0.0,1.0,92,0.00,,,0.10,,2013-02-08 06:01:00,
2013-02-07 22:11:00,38.0,36.0,30.00,ESE,104,0.0,1.0,92,0.00,,,0.10,,2013-02-08 06:11:00,
2013-02-07 22:21:00,38.0,36.0,30.00,ESE,104,0.0,1.0,93,0.00,,,0.10,,2013-02-08 06:21:00,
2013-02-07 22:31:00,38.0,36.0,29.99,ESE,104,0.0,1.0,93,0.00,,,0.10,,2013-02-08 06:31:00,
2013-02-07 22:41:00,38.0,36.0,29.99,ESE,104,0.0,1.0,93,0.00,,,0.10,,2013-02-08 06:41:00,
2013-02-07 22:52:00,38.0,36.0,29.99,ESE,104,0.0,1.0,93,0.00,,,0.10,,2013-02-08 06:52:00,
2013-02-07 23:01:00,37.0,35.0,29.99,ESE,104,0.0,0.0,93,0.00,,,0.10,,2013-02-08 07:01:00,
2013-02-07 23:11:00,37.0,35.0,29.99,ESE,104,0.0,0.0,93,0.00,,,0.10,,2013-02-08 07:11:00,
2013-02-07 23:21:00,37.0,35.0,29.99,ESE,104,0.0,1.0,94,0.00,,,0.10,,2013-02-08 07:21:00,
2013-02-07 23:31:00,37.0,35.0,29.99,ESE,104,0.0,1.0,94,0.00,,,0.10,,2013-02-08 07:31:00,
2013-02-07 23:42:00,37.0,35.0,29.98,ESE,104,0.0,1.0,94,0.00,,,0.10,,2013-02-08 07:42:00,
2013-02-07 23:52:00,37.0,35.0,29.98,ESE,104,0.0,1.0,94,0.00,,,0.10,,2013-02-08 07:52:00,